Time;durP1;ratioP1;P1;durP2;ratioP2;P2;SDS_P1;SDS_P2;PMS_P1;PMS_P2;Temp;Humidity;BMP_temperature;BMP_pressure;BME280_temperature;BME280_humidity;BME280_pressure;Samples;Min_cycle;Max_cycle;Signal;HPM_P1;HPM_P2
2022/05/13 00:02:22;;;;;;;10.27;5.67;;;;;;;;;;7388405;19;20516;-74
2022/05/13 00:04:48;;;;;;;9.37;6.07;;;;;;;;;;7387287;19;20152;-75
2022/05/13 00:07:14;;;;;;;8.63;5.80;;;;;;;;;;7382057;19;20152;-75
2022/05/13 00:12:26;;;;;;;7.83;6.60;;;;;;;;;;7383373;19;20147;-75
2022/05/13 00:14:52;;;;;;;10.57;6.40;;;;;;;;;;7381056;19;20641;-74
2022/05/13 00:17:19;;;;;;;8.40;7.27;;;;;;;;;;7383226;19;20125;-75
2022/05/13 00:19:45;;;;;;;9.83;6.63;;;;;;;;;;7384212;19;20137;-75
2022/05/13 00:22:12;;;;;;;12.13;6.50;;;;;;;;;;7388084;19;20618;-75
2022/05/13 00:24:38;;;;;;;9.43;6.93;;;;;;;;;;7371276;19;20640;-79
2022/05/13 00:27:04;;;;;;;11.20;6.77;;;;;;;;;;7385030;19;20120;-75
2022/05/13 00:29:31;;;;;;;9.37;6.77;;;;;;;;;;7378580;19;20151;-74
2022/05/13 00:31:57;;;;;;;9.57;6.50;;;;;;;;;;7374732;19;21493;-77
2022/05/13 00:34:23;;;;;;;11.03;7.00;;;;;;;;;;7371278;19;20188;-75
2022/05/13 00:36:49;;;;;;;8.73;6.63;;;;;;;;;;7378040;19;20144;-75
2022/05/13 00:39:15;;;;;;;8.87;6.97;;;;;;;;;;7376395;19;20123;-76
2022/05/13 00:41:41;;;;;;;11.13;7.03;;;;;;;;;;7379995;19;20517;-74
2022/05/13 00:44:07;;;;;;;9.03;6.87;;;;;;;;;;7373298;19;20148;-77
2022/05/13 00:46:34;;;;;;;10.37;6.90;;;;;;;;;;7381333;19;20165;-76
2022/05/13 00:49:02;;;;;;;9.37;6.97;;;;;;;;;;7374887;19;20125;-77
2022/05/13 00:51:30;;;;;;;12.23;6.83;;;;;;;;;;7375382;19;20646;-75
2022/05/13 00:53:56;;;;;;;7.30;6.43;;;;;;;;;;7373601;19;20164;-78
2022/05/13 00:56:23;;;;;;;8.63;6.37;;;;;;;;;;7375939;19;20149;-73
2022/05/13 00:58:51;;;;;;;9.83;7.10;;;;;;;;;;7418150;19;20804;-74
2022/05/13 01:01:17;;;;;;;10.30;6.87;;;;;;;;;;7419461;19;20140;-74
2022/05/13 01:03:44;;;;;;;7.07;6.37;;;;;;;;;;7409884;19;20141;-73
2022/05/13 01:06:13;;;;;;;9.97;6.43;;;;;;;;;;7413242;19;20164;-75
2022/05/13 01:08:39;;;;;;;11.50;6.43;;;;;;;;;;7393010;19;20141;-73
2022/05/13 01:11:08;;;;;;;10.10;6.90;;;;;;;;;;7392493;19;20159;-75
2022/05/13 01:13:34;;;;;;;7.77;6.50;;;;;;;;;;7388495;19;20848;-75
2022/05/13 01:16:01;;;;;;;6.83;6.03;;;;;;;;;;7389286;19;20167;-74
2022/05/13 01:18:26;;;;;;;11.03;7.07;;;;;;;;;;7395502;19;20570;-74
2022/05/13 01:20:53;;;;;;;10.07;7.07;;;;;;;;;;7395151;19;20156;-75
2022/05/13 01:23:20;;;;;;;7.23;5.83;;;;;;;;;;7389099;19;20145;-74
2022/05/13 01:25:59;;;;;;;10.70;6.57;;;;;;;;;;7391262;19;20179;-74
2022/05/13 01:28:27;;;;;;;7.77;5.93;;;;;;;;;;7395439;19;20562;-75
2022/05/13 01:30:55;;;;;;;8.40;6.23;;;;;;;;;;7393122;19;20141;-75
2022/05/13 01:33:22;;;;;;;8.77;6.47;;;;;;;;;;7390597;19;20139;-73
2022/05/13 01:35:49;;;;;;;8.50;6.63;;;;;;;;;;7393088;19;20173;-74
2022/05/13 01:38:18;;;;;;;9.70;6.83;;;;;;;;;;7389941;19;20144;-73
2022/05/13 01:40:45;;;;;;;11.30;6.87;;;;;;;;;;7390635;19;20171;-75
2022/05/13 01:43:11;;;;;;;8.33;6.53;;;;;;;;;;7388567;19;20473;-74
2022/05/13 01:45:37;;;;;;;9.23;6.20;;;;;;;;;;7386174;19;20168;-74
2022/05/13 01:48:04;;;;;;;9.07;6.70;;;;;;;;;;7395080;19;20148;-75
2022/05/13 01:50:30;;;;;;;7.37;6.53;;;;;;;;;;7388535;19;20839;-75
2022/05/13 01:52:56;;;;;;;11.57;6.53;;;;;;;;;;7385654;19;20149;-74
2022/05/13 01:55:23;;;;;;;9.20;5.80;;;;;;;;;;7383105;19;20168;-75
2022/05/13 01:57:49;;;;;;;6.83;5.43;;;;;;;;;;7384965;19;20121;-75
2022/05/13 02:00:16;;;;;;;9.13;6.07;;;;;;;;;;7378976;19;20156;-74
2022/05/13 02:05:27;;;;;;;7.77;5.77;;;;;;;;;;7371732;19;20172;-75
2022/05/13 02:07:53;;;;;;;6.60;5.87;;;;;;;;;;7377510;19;20237;-76
2022/05/13 02:10:20;;;;;;;9.93;6.30;;;;;;;;;;7375977;19;20621;-74
2022/05/13 02:12:46;;;;;;;14.23;6.30;;;;;;;;;;7370836;19;20522;-74
2022/05/13 02:15:13;;;;;;;8.77;6.17;;;;;;;;;;7386498;19;20509;-75
2022/05/13 02:17:39;;;;;;;9.13;6.17;;;;;;;;;;7377325;19;20148;-74
2022/05/13 02:20:06;;;;;;;9.17;5.90;;;;;;;;;;7381959;19;20121;-75
2022/05/13 02:22:32;;;;;;;6.30;5.70;;;;;;;;;;7380124;19;20141;-75
2022/05/13 02:24:58;;;;;;;7.67;5.60;;;;;;;;;;7383206;19;20502;-74
2022/05/13 02:27:24;;;;;;;5.63;4.90;;;;;;;;;;7383873;19;20152;-76
2022/05/13 02:29:50;;;;;;;7.73;6.43;;;;;;;;;;7379196;19;20124;-75
2022/05/13 02:32:16;;;;;;;8.03;6.00;;;;;;;;;;7373566;19;20132;-74
2022/05/13 02:34:42;;;;;;;7.83;6.27;;;;;;;;;;7385544;19;20171;-76
2022/05/13 02:37:08;;;;;;;12.53;6.20;;;;;;;;;;7380044;19;20145;-76
2022/05/13 02:39:34;;;;;;;6.70;5.60;;;;;;;;;;7373061;19;20144;-75
2022/05/13 02:42:00;;;;;;;8.20;5.90;;;;;;;;;;7384948;19;20148;-76
2022/05/13 02:44:26;;;;;;;6.70;6.10;;;;;;;;;;7372615;19;20140;-74
2022/05/13 02:46:52;;;;;;;10.40;5.87;;;;;;;;;;7375777;19;20167;-74
2022/05/13 02:49:18;;;;;;;7.13;5.57;;;;;;;;;;7369684;19;20626;-75
2022/05/13 02:51:47;;;;;;;8.73;5.60;;;;;;;;;;7380772;19;20125;-77
2022/05/13 02:54:13;;;;;;;7.17;6.47;;;;;;;;;;7383734;19;20148;-74
2022/05/13 02:56:39;;;;;;;6.83;6.13;;;;;;;;;;7381600;19;20622;-75
2022/05/13 02:59:06;;;;;;;7.17;5.50;;;;;;;;;;7377187;19;20607;-75
2022/05/13 03:01:32;;;;;;;7.70;6.07;;;;;;;;;;7384165;19;20136;-75
2022/05/13 03:03:58;;;;;;;9.13;6.00;;;;;;;;;;7385940;19;20141;-75
2022/05/13 03:06:24;;;;;;;7.53;6.23;;;;;;;;;;7380476;19;20148;-76
2022/05/13 03:08:51;;;;;;;7.30;6.50;;;;;;;;;;7379900;19;20515;-76
2022/05/13 03:11:17;;;;;;;8.23;6.10;;;;;;;;;;7384473;19;20192;-77
2022/05/13 03:13:43;;;;;;;8.87;6.03;;;;;;;;;;7381333;19;20188;-77
2022/05/13 03:16:15;;;;;;;8.77;5.83;;;;;;;;;;7366819;19;20165;-75
2022/05/13 03:18:41;;;;;;;8.43;6.47;;;;;;;;;;7378403;19;21180;-76
2022/05/13 03:21:08;;;;;;;7.67;6.20;;;;;;;;;;7375407;19;20140;-76
2022/05/13 03:23:34;;;;;;;9.40;6.23;;;;;;;;;;7384178;19;20136;-77
2022/05/13 03:26:00;;;;;;;8.30;6.23;;;;;;;;;;7383028;19;20145;-75
2022/05/13 03:28:26;;;;;;;7.00;5.77;;;;;;;;;;7380749;19;20121;-75
2022/05/13 03:30:52;;;;;;;7.13;6.00;;;;;;;;;;7384189;19;20125;-76
2022/05/13 03:33:19;;;;;;;7.03;5.63;;;;;;;;;;7385234;19;20165;-75
2022/05/13 03:35:45;;;;;;;8.67;5.73;;;;;;;;;;7383302;19;20140;-75
2022/05/13 03:38:11;;;;;;;8.07;6.03;;;;;;;;;;7389773;19;20172;-75
2022/05/13 03:40:37;;;;;;;9.40;6.87;;;;;;;;;;7377615;19;20164;-75
2022/05/13 03:43:04;;;;;;;6.13;5.53;;;;;;;;;;7384427;19;20224;-75
2022/05/13 03:45:32;;;;;;;8.00;6.23;;;;;;;;;;7383039;19;20639;-75
2022/05/13 03:47:58;;;;;;;8.90;6.70;;;;;;;;;;7395173;19;20191;-76
2022/05/13 03:50:24;;;;;;;8.13;6.37;;;;;;;;;;7397167;19;20137;-75
2022/05/13 03:52:50;;;;;;;7.07;6.23;;;;;;;;;;7394136;19;20128;-78
2022/05/13 03:55:16;;;;;;;6.53;5.73;;;;;;;;;;7383514;19;20170;-76
2022/05/13 03:57:42;;;;;;;7.80;5.63;;;;;;;;;;7375504;19;20598;-77
2022/05/13 04:00:09;;;;;;;6.00;5.00;;;;;;;;;;7387816;19;20136;-77
2022/05/13 04:02:36;;;;;;;8.30;5.33;;;;;;;;;;7389879;19;20200;-75
2022/05/13 04:10:31;;;;;;;8.00;5.60;;;;;;;;;;7390209;19;20128;-76
2022/05/13 04:18:26;;;;;;;9.87;5.23;;;;;;;;;;7390685;19;20206;-75
2022/05/13 04:20:52;;;;;;;5.53;4.87;;;;;;;;;;7383825;19;20125;-74
2022/05/13 04:23:18;;;;;;;6.80;4.60;;;;;;;;;;7360983;19;20140;-76
2022/05/13 04:25:45;;;;;;;5.33;4.67;;;;;;;;;;7376788;19;20176;-75
2022/05/13 04:28:11;;;;;;;7.80;4.80;;;;;;;;;;7379094;19;20157;-75
2022/05/13 04:30:37;;;;;;;5.13;4.47;;;;;;;;;;7380067;19;20606;-77
2022/05/13 04:33:03;;;;;;;6.33;4.17;;;;;;;;;;7381533;19;20201;-76
2022/05/13 04:35:30;;;;;;;7.33;5.13;;;;;;;;;;7378680;19;20172;-78
2022/05/13 04:37:56;;;;;;;7.20;4.70;;;;;;;;;;7368987;19;20164;-77
2022/05/13 04:40:22;;;;;;;7.57;4.73;;;;;;;;;;7373307;19;20459;-78
2022/05/13 04:42:51;;;;;;;5.80;4.50;;;;;;;;;;7386094;19;20555;-75
2022/05/13 04:45:24;;;;;;;6.73;4.30;;;;;;;;;;7366759;19;20650;-74
2022/05/13 04:50:36;;;;;;;5.27;4.33;;;;;;;;;;7386697;19;20128;-74
2022/05/13 04:53:02;;;;;;;4.43;4.03;;;;;;;;;;7378133;19;20152;-75
2022/05/13 04:55:28;;;;;;;5.10;3.47;;;;;;;;;;7372664;19;20696;-74
2022/05/13 04:57:54;;;;;;;5.30;4.80;;;;;;;;;;7367494;19;20155;-78
2022/05/13 05:00:20;;;;;;;6.83;4.43;;;;;;;;;;7385338;19;20663;-77
2022/05/13 05:02:46;;;;;;;5.13;4.60;;;;;;;;;;7371357;19;20152;-76
2022/05/13 05:05:12;;;;;;;5.33;4.23;;;;;;;;;;7374069;19;20148;-75
2022/05/13 05:07:38;;;;;;;4.23;3.83;;;;;;;;;;7374928;19;20156;-78
2022/05/13 05:10:04;;;;;;;6.87;4.03;;;;;;;;;;7375652;19;20477;-78
2022/05/13 05:12:30;;;;;;;5.43;4.00;;;;;;;;;;7386401;19;20132;-75
2022/05/13 05:14:58;;;;;;;4.37;3.20;;;;;;;;;;7370211;19;20149;-74
2022/05/13 05:17:23;;;;;;;5.27;4.00;;;;;;;;;;7382433;19;20560;-75
2022/05/13 05:19:49;;;;;;;5.57;3.80;;;;;;;;;;7379961;19;20133;-75
2022/05/13 05:22:16;;;;;;;4.70;4.00;;;;;;;;;;7378428;19;20125;-75
2022/05/13 05:24:42;;;;;;;6.73;4.37;;;;;;;;;;7380306;19;20186;-76
2022/05/13 05:27:10;;;;;;;4.60;4.20;;;;;;;;;;7379114;19;20125;-74
2022/05/13 05:29:36;;;;;;;7.20;4.63;;;;;;;;;;7379029;19;20638;-76
2022/05/13 05:32:02;;;;;;;6.13;4.23;;;;;;;;;;7383289;19;20476;-75
2022/05/13 05:34:28;;;;;;;6.47;4.40;;;;;;;;;;7382391;19;20187;-75
2022/05/13 05:36:54;;;;;;;6.00;3.90;;;;;;;;;;7385340;19;20125;-75
2022/05/13 05:39:20;;;;;;;5.50;4.40;;;;;;;;;;7382002;19;20149;-75
2022/05/13 05:41:47;;;;;;;5.77;4.17;;;;;;;;;;7378961;19;20129;-74
2022/05/13 05:44:12;;;;;;;6.03;4.17;;;;;;;;;;7383281;19;20171;-75
2022/05/13 05:46:38;;;;;;;5.57;4.50;;;;;;;;;;7400311;19;20172;-74
2022/05/13 05:49:05;;;;;;;5.53;4.32;;;;;;;;;;7394794;19;20137;-74
2022/05/13 05:51:31;;;;;;;6.15;4.43;;;;;;;;;;7395758;19;20192;-74
2022/05/13 05:59:27;;;;;;;5.53;4.57;;;;;;;;;;7396479;19;20612;-75
2022/05/13 06:01:53;;;;;;;6.38;4.20;;;;;;;;;;7391821;19;20228;-75
2022/05/13 06:04:20;;;;;;;12.38;4.40;;;;;;;;;;7393885;19;21053;-77
2022/05/13 06:06:46;;;;;;;8.27;4.35;;;;;;;;;;7394359;19;20193;-88
2022/05/13 06:09:12;;;;;;;4.47;4.07;;;;;;;;;;7403531;19;20141;-89
2022/05/13 19:32:18;;;;;;;9.85;6.47;;;;;;;;;;7378989;19;20196;-78
2022/05/13 19:34:44;;;;;;;6.43;5.72;;;;;;;;;;7376960;19;20180;-77
2022/05/13 19:37:09;;;;;;;7.95;6.57;;;;;;;;;;7380397;19;20160;-77
2022/05/13 19:39:35;;;;;;;9.65;5.53;;;;;;;;;;7369699;19;20152;-76
2022/05/13 19:42:06;;;;;;;6.47;5.65;;;;;;;;;;7370490;19;20622;-80
2022/05/13 19:44:32;;;;;;;8.38;6.10;;;;;;;;;;7380427;19;20159;-78
2022/05/13 19:46:57;;;;;;;12.25;9.88;;;;;;;;;;7388419;19;20188;-76
2022/05/13 19:49:23;;;;;;;11.23;6.22;;;;;;;;;;7387641;19;20643;-76
2022/05/13 19:51:50;;;;;;;10.27;6.70;;;;;;;;;;7391868;19;20257;-81
2022/05/13 19:54:16;;;;;;;9.32;6.82;;;;;;;;;;7393104;19;20121;-80
2022/05/13 19:56:42;;;;;;;10.90;6.43;;;;;;;;;;7384979;19;20137;-78
2022/05/13 19:59:10;;;;;;;8.93;5.25;;;;;;;;;;7388899;19;21045;-81
2022/05/13 20:01:37;;;;;;;7.55;5.53;;;;;;;;;;7389904;19;20163;-79
2022/05/13 20:04:03;;;;;;;6.57;5.07;;;;;;;;;;7376433;19;20148;-77
2022/05/13 20:11:58;;;;;;;8.07;5.43;;;;;;;;;;7387313;19;20144;-78
2022/05/13 20:14:25;;;;;;;7.82;5.25;;;;;;;;;;7383628;19;20148;-76
2022/05/13 20:16:51;;;;;;;9.30;4.85;;;;;;;;;;7390732;19;20149;-77
2022/05/13 20:19:17;;;;;;;6.07;4.70;;;;;;;;;;7383858;19;20137;-77
2022/05/13 20:24:29;;;;;;;7.70;5.05;;;;;;;;;;7388236;19;20148;-76
2022/05/13 20:26:55;;;;;;;6.60;4.93;;;;;;;;;;7391541;19;20132;-76
2022/05/13 20:29:21;;;;;;;7.68;4.95;;;;;;;;;;7387415;19;20152;-77
2022/05/13 20:31:57;;;;;;;6.05;4.60;;;;;;;;;;7390340;19;20599;-77
2022/05/13 20:34:23;;;;;;;8.52;5.20;;;;;;;;;;7383282;19;20203;-77
2022/05/13 20:36:49;;;;;;;6.75;4.65;;;;;;;;;;7383710;19;20152;-76
2022/05/13 20:39:17;;;;;;;6.80;4.85;;;;;;;;;;7389581;19;20180;-77
2022/05/13 20:41:43;;;;;;;5.93;5.10;;;;;;;;;;7388090;19;20144;-76
2022/05/13 20:44:10;;;;;;;6.40;4.77;;;;;;;;;;7386212;19;20140;-77
2022/05/13 20:46:38;;;;;;;8.35;5.60;;;;;;;;;;7380612;19;20160;-76
2022/05/13 20:49:04;;;;;;;8.80;6.40;;;;;;;;;;7385868;19;20148;-76
2022/05/13 20:51:31;;;;;;;6.13;5.53;;;;;;;;;;7392999;19;20137;-76
2022/05/13 20:54:02;;;;;;;5.28;4.60;;;;;;;;;;7390694;19;20236;-78
2022/05/13 20:56:29;;;;;;;6.85;5.18;;;;;;;;;;7387622;19;20498;-79
2022/05/13 20:58:55;;;;;;;5.78;5.05;;;;;;;;;;7391393;19;20137;-76
2022/05/13 21:01:21;;;;;;;8.82;5.32;;;;;;;;;;7385578;19;20133;-76
2022/05/13 21:03:52;;;;;;;7.80;5.67;;;;;;;;;;7383633;19;20121;-76
2022/05/13 21:06:18;;;;;;;6.45;5.43;;;;;;;;;;7376362;19;20196;-77
2022/05/13 21:08:44;;;;;;;5.95;5.22;;;;;;;;;;7389200;19;20152;-76
2022/05/13 21:11:10;;;;;;;7.88;5.60;;;;;;;;;;7388631;19;20133;-76
2022/05/13 21:13:37;;;;;;;7.30;4.90;;;;;;;;;;7389521;19;20137;-77
2022/05/13 21:16:03;;;;;;;7.00;5.07;;;;;;;;;;7391634;19;20149;-76
2022/05/13 21:18:30;;;;;;;5.03;4.53;;;;;;;;;;7390353;19;20157;-76
2022/05/13 21:20:56;;;;;;;7.80;4.93;;;;;;;;;;7389969;19;20173;-76
2022/05/13 21:23:22;;;;;;;6.55;4.80;;;;;;;;;;7393052;19;20129;-76
2022/05/13 21:25:48;;;;;;;5.85;5.10;;;;;;;;;;7391612;19;20192;-77
2022/05/13 21:28:15;;;;;;;5.05;4.47;;;;;;;;;;7394800;19;20156;-77
2022/05/13 21:30:41;;;;;;;4.85;4.40;;;;;;;;;;7393154;19;20141;-77
2022/05/13 21:38:37;;;;;;;4.72;3.63;;;;;;;;;;7396846;19;20613;-77
2022/05/13 21:41:04;;;;;;;8.00;4.75;;;;;;;;;;7392959;19;20212;-77
2022/05/13 21:43:30;;;;;;;6.85;4.93;;;;;;;;;;7390588;19;20153;-77
2022/05/13 21:45:56;;;;;;;5.97;4.85;;;;;;;;;;7389887;19;20161;-77
2022/05/13 21:48:22;;;;;;;5.47;4.10;;;;;;;;;;7388152;19;20623;-77
2022/05/13 21:50:48;;;;;;;4.85;4.35;;;;;;;;;;7389001;19;20129;-77
2022/05/13 21:53:15;;;;;;;8.95;5.15;;;;;;;;;;7393593;19;20200;-77
2022/05/13 21:55:41;;;;;;;5.95;4.97;;;;;;;;;;7394942;19;20176;-77
2022/05/13 21:58:08;;;;;;;8.25;4.97;;;;;;;;;;7397415;19;20167;-77
2022/05/13 22:00:34;;;;;;;17.70;4.70;;;;;;;;;;7397611;19;20125;-76
2022/05/13 22:03:04;;;;;;;7.38;4.38;;;;;;;;;;7393132;19;20148;-76
2022/05/13 22:05:30;;;;;;;7.68;5.05;;;;;;;;;;7393766;19;20145;-78
2022/05/13 22:07:56;;;;;;;9.70;4.70;;;;;;;;;;7396841;19;20273;-77
2022/05/13 22:10:22;;;;;;;7.10;5.00;;;;;;;;;;7393306;19;20150;-77
2022/05/13 22:12:48;;;;;;;8.50;4.50;;;;;;;;;;7393151;19;20200;-77
2022/05/13 22:15:14;;;;;;;5.63;5.03;;;;;;;;;;7395544;19;20508;-77
2022/05/13 22:17:40;;;;;;;5.75;4.88;;;;;;;;;;7397032;19;20610;-77
2022/05/13 22:20:07;;;;;;;7.60;5.30;;;;;;;;;;7395895;19;20141;-78
2022/05/13 22:22:33;;;;;;;6.90;6.20;;;;;;;;;;7394801;19;20132;-77
2022/05/13 22:24:59;;;;;;;8.82;5.97;;;;;;;;;;7394284;19;20180;-78
2022/05/13 22:27:25;;;;;;;11.52;5.47;;;;;;;;;;7389012;19;20188;-77
2022/05/13 22:29:51;;;;;;;6.72;5.95;;;;;;;;;;7394539;19;20141;-76
2022/05/13 22:32:17;;;;;;;7.03;4.90;;;;;;;;;;7394672;19;20540;-77
2022/05/13 22:34:43;;;;;;;8.27;5.32;;;;;;;;;;7391560;19;20141;-80
2022/05/13 22:37:09;;;;;;;9.05;5.65;;;;;;;;;;7385360;19;20618;-76
2022/05/13 22:39:36;;;;;;;7.07;6.10;;;;;;;;;;7394728;19;20153;-77
2022/05/13 22:42:03;;;;;;;7.45;5.20;;;;;;;;;;7394239;19;20125;-78
2022/05/13 22:44:30;;;;;;;6.70;5.95;;;;;;;;;;7388626;19;20512;-76
2022/05/13 22:46:56;;;;;;;8.40;5.70;;;;;;;;;;7385072;19;20133;-79
2022/05/13 22:49:22;;;;;;;8.52;5.70;;;;;;;;;;7382008;19;20152;-78
2022/05/13 22:51:48;;;;;;;7.25;5.28;;;;;;;;;;7381811;19;20142;-77
2022/05/13 22:54:14;;;;;;;7.75;5.05;;;;;;;;;;7384369;19;20152;-77
2022/05/13 22:56:40;;;;;;;5.90;5.22;;;;;;;;;;7386723;19;20595;-77
2022/05/13 22:59:07;;;;;;;7.53;5.28;;;;;;;;;;7392491;19;20137;-77
2022/05/13 23:01:36;;;;;;;8.52;5.25;;;;;;;;;;7386915;19;20153;-77
2022/05/13 23:04:02;;;;;;;6.47;4.70;;;;;;;;;;7383314;19;20144;-78
2022/05/13 23:11:58;;;;;;;8.63;5.53;;;;;;;;;;7392724;19;20200;-77
2022/05/13 23:14:25;;;;;;;6.03;4.88;;;;;;;;;;7386082;19;20173;-78
2022/05/13 23:16:51;;;;;;;8.82;5.38;;;;;;;;;;7387699;19;20233;-77
2022/05/13 23:19:17;;;;;;;9.88;5.28;;;;;;;;;;7387279;19;20156;-78
2022/05/13 23:21:43;;;;;;;7.40;5.10;;;;;;;;;;7389658;19;20554;-78
2022/05/13 23:24:09;;;;;;;7.95;5.25;;;;;;;;;;7380898;19;20132;-77
2022/05/13 23:26:35;;;;;;;5.45;4.90;;;;;;;;;;7391058;19;20129;-77
2022/05/13 23:29:03;;;;;;;7.30;5.17;;;;;;;;;;7392046;19;20205;-77
2022/05/13 23:31:29;;;;;;;7.30;4.83;;;;;;;;;;7384727;19;20157;-78
2022/05/13 23:33:56;;;;;;;8.13;5.30;;;;;;;;;;7388546;19;20171;-77
2022/05/13 23:36:22;;;;;;;7.10;5.20;;;;;;;;;;7386206;19;20173;-77
2022/05/13 23:38:48;;;;;;;8.32;5.30;;;;;;;;;;7383521;19;20160;-80
2022/05/13 23:41:15;;;;;;;5.85;4.63;;;;;;;;;;7381991;19;20136;-78
2022/05/13 23:43:41;;;;;;;6.35;5.30;;;;;;;;;;7382674;19;20733;-78
2022/05/13 23:46:07;;;;;;;6.40;5.28;;;;;;;;;;7379767;19;20212;-79
2022/05/13 23:48:34;;;;;;;8.40;5.70;;;;;;;;;;7388036;19;20145;-77
2022/05/13 23:51:00;;;;;;;7.88;4.80;;;;;;;;;;7387252;19;20615;-77
2022/05/13 23:56:13;;;;;;;7.03;5.05;;;;;;;;;;7379592;19;21104;-77
2022/05/13 23:58:40;;;;;;;6.35;5.07;;;;;;;;;;7380208;19;20140;-77
